Time;durP1;ratioP1;P1;durP2;ratioP2;P2;SDS_P1;SDS_P2;PMS_P1;PMS_P2;Temp;Humidity;BMP_temperature;BMP_pressure;BME280_temperature;BME280_humidity;BME280_pressure;Samples;Min_cycle;Max_cycle;Signal;HPM_P1;HPM_P2
2021/03/07 00:01:08;;;;;;;19.70;11.07;;;;;;;4.51;56.55;102519.56;4969819;28;20041;-87
2021/03/07 00:03:35;;;;;;;22.08;11.57;;;;;;;4.06;56.97;102505.16;4954210;28;20078;-84
2021/03/07 00:06:02;;;;;;;20.27;12.50;;;;;;;4.03;56.80;102464.38;4939871;28;20034;-89
2021/03/07 00:08:36;;;;;;;18.85;11.60;;;;;;;4.90;56.76;102616.94;4970069;28;20046;-90
2021/03/07 00:11:03;;;;;;;19.90;12.18;;;;;;;4.40;57.42;102578.31;4953643;28;20114;-91
2021/03/07 00:13:30;;;;;;;23.75;11.32;;;;;;;4.59;56.73;102554.41;4952347;28;20055;-89
2021/03/07 00:15:57;;;;;;;23.58;12.13;;;;;;;4.93;56.72;102624.84;4953341;28;20031;-90
2021/03/07 00:18:24;;;;;;;18.80;12.18;;;;;;;4.41;56.84;102558.13;4987142;28;20055;-88
2021/03/07 00:20:51;;;;;;;19.92;11.45;;;;;;;4.23;57.23;102501.47;4959899;28;20058;-89
2021/03/07 00:23:18;;;;;;;24.15;10.70;;;;;;;4.81;57.84;102634.41;4978955;28;20091;-90
2021/03/07 00:25:45;;;;;;;22.42;12.27;;;;;;;4.48;56.67;102500.72;4970684;28;20026;-89
2021/03/07 00:28:12;;;;;;;27.95;11.20;;;;;;;5.29;56.63;102616.38;4968083;28;20031;-90
2021/03/07 00:30:39;;;;;;;19.58;11.45;;;;;;;5.10;56.85;102608.44;4949560;28;20035;-91
2021/03/07 00:33:06;;;;;;;23.77;11.70;;;;;;;5.05;57.33;102640.00;4942095;28;20058;-90
2021/03/07 00:35:33;;;;;;;20.85;12.50;;;;;;;4.41;57.85;102532.56;4952284;28;20031;-90
2021/03/07 00:38:00;;;;;;;26.02;12.57;;;;;;;4.76;57.48;102555.34;4957940;28;20027;-90
2021/03/07 00:40:27;;;;;;;21.30;11.77;;;;;;;5.39;56.62;102620.84;4950376;28;20027;-90
2021/03/07 00:42:54;;;;;;;26.23;13.18;;;;;;;5.26;57.19;102572.78;4945128;28;20035;-89
2021/03/07 00:45:22;;;;;;;19.33;10.23;;;;;;;5.50;56.06;102598.56;4948474;28;20030;-90
2021/03/07 00:47:49;;;;;;;24.15;10.82;;;;;;;4.83;56.63;102512.47;4941592;28;20031;-88
2021/03/07 00:50:22;;;;;;;24.60;11.90;;;;;;;5.05;56.50;102521.94;4956394;28;20031;-89
2021/03/07 00:52:49;;;;;;;25.15;11.05;;;;;;;5.86;55.92;102616.59;4955103;28;20042;-86
2021/03/07 00:55:17;;;;;;;20.15;10.55;;;;;;;5.39;56.19;102525.56;4940973;28;20084;-86
2021/03/07 00:57:44;;;;;;;21.83;12.02;;;;;;;5.81;55.17;102575.88;4964006;28;20043;-87
2021/03/07 01:00:18;;;;;;;21.65;12.30;;;;;;;5.96;55.19;102577.91;4966120;28;20037;-86
2021/03/07 01:02:45;;;;;;;21.33;11.48;;;;;;;6.10;54.80;102580.00;4965876;28;20038;-84
2021/03/07 01:05:13;;;;;;;23.60;11.77;;;;;;;4.76;55.06;102355.84;4981072;28;20113;-83
2021/03/07 01:07:40;;;;;;;24.27;12.57;;;;;;;5.44;55.09;102428.91;4956850;28;20035;-83
2021/03/07 01:10:20;;;;;;;21.20;12.07;;;;;;;6.27;55.14;102607.47;4955788;28;20106;-86
2021/03/07 01:12:50;;;;;;;24.88;11.75;;;;;;;5.61;55.65;102525.91;4950962;28;20405;-87
2021/03/07 01:15:26;;;;;;;29.77;12.43;;;;;;;5.28;56.70;102521.28;4947799;29;20393;-84
2021/03/07 01:17:54;;;;;;;24.58;10.75;;;;;;;5.56;56.28;102523.69;4945835;29;20028;-85
2021/03/07 01:20:21;;;;;;;31.38;12.95;;;;;;;5.56;56.24;102484.34;4952053;28;20031;-86
2021/03/07 01:22:49;;;;;;;21.90;11.15;;;;;;;5.94;56.17;102530.50;4948998;28;20488;-84
2021/03/07 01:25:21;;;;;;;22.75;12.75;;;;;;;5.95;56.15;102551.47;4944134;28;20035;-90
2021/03/07 01:27:49;;;;;;;29.50;12.32;;;;;;;5.47;56.00;102428.56;4948652;28;20028;-86
2021/03/07 01:30:18;;;;;;;22.58;11.85;;;;;;;5.03;55.03;102330.97;4943771;28;20278;-85
2021/03/07 01:32:46;;;;;;;17.83;12.27;;;;;;;6.02;54.75;102508.53;4943086;28;20034;-85
2021/03/07 01:35:14;;;;;;;26.75;12.73;;;;;;;6.02;54.78;102494.78;4942131;28;20429;-85
2021/03/07 01:37:41;;;;;;;26.40;14.00;;;;;;;5.77;55.81;102499.44;4966121;28;20451;-86
2021/03/07 01:40:11;;;;;;;28.70;13.85;;;;;;;4.33;56.29;102270.16;4945059;29;20031;-85
2021/03/07 01:42:43;;;;;;;24.45;12.20;;;;;;;6.45;55.41;102565.97;4946727;28;20043;-87
2021/03/07 01:45:10;;;;;;;25.08;12.18;;;;;;;5.70;55.91;102463.56;4940996;28;20066;-86
2021/03/07 01:47:42;;;;;;;29.95;13.15;;;;;;;5.69;55.38;102423.34;4953487;28;20477;-86
2021/03/07 01:50:10;;;;;;;25.40;13.63;;;;;;;5.65;55.25;102378.88;4938573;28;20028;-86
2021/03/07 01:52:37;;;;;;;19.08;12.50;;;;;;;6.24;54.56;102460.13;4952048;28;20031;-84
2021/03/07 01:55:05;;;;;;;21.42;12.52;;;;;;;6.09;54.84;102451.78;4948865;29;20108;-85
2021/03/07 01:57:33;;;;;;;23.00;13.38;;;;;;;6.65;54.69;102522.34;4948750;29;20401;-83
2021/03/07 02:00:01;;;;;;;27.90;16.17;;;;;;;6.20;54.13;102400.16;4935558;28;20527;-84
2021/03/07 02:02:28;;;;;;;29.10;14.15;;;;;;;5.99;53.56;102355.72;4937054;29;20122;-86
2021/03/07 02:04:55;;;;;;;27.58;14.95;;;;;;;5.29;53.85;102256.59;4940280;29;20107;-85
2021/03/07 02:07:22;;;;;;;29.00;14.45;;;;;;;7.05;53.98;102558.09;4935043;29;20023;-85
2021/03/07 02:09:53;;;;;;;25.65;14.88;;;;;;;6.50;54.14;102408.56;4949177;29;20148;-85
2021/03/07 02:12:21;;;;;;;30.08;14.88;;;;;;;6.80;53.58;102478.41;4939820;28;20027;-84
2021/03/07 02:14:51;;;;;;;34.42;15.05;;;;;;;6.43;53.07;102386.44;4955146;28;20033;-86
2021/03/07 02:17:19;;;;;;;25.77;15.00;;;;;;;7.31;52.43;102500.94;4952402;28;20031;-86
2021/03/07 02:19:52;;;;;;;27.10;14.70;;;;;;;6.55;52.28;102368.47;4951202;28;20405;-86
2021/03/07 02:22:31;;;;;;;30.38;15.48;;;;;;;7.51;53.16;102537.09;4968450;28;20037;-86
2021/03/07 02:25:16;;;;;;;30.40;15.05;;;;;;;7.57;53.51;102525.34;4963824;28;20081;-85
2021/03/07 02:27:43;;;;;;;26.85;14.02;;;;;;;6.95;52.04;102392.25;4975908;28;20554;-85
2021/03/07 02:30:14;;;;;;;30.17;16.85;;;;;;;7.43;52.62;102491.16;4957370;28;20023;-85
2021/03/07 02:32:49;;;;;;;34.17;15.25;;;;;;;7.53;52.78;102519.34;4950402;28;20042;-85
2021/03/07 02:35:23;;;;;;;29.95;15.65;;;;;;;6.66;53.89;102386.44;4951327;28;20047;-86
2021/03/07 02:37:56;;;;;;;28.15;15.52;;;;;;;7.60;53.34;102529.63;4945221;29;20118;-86
2021/03/07 02:40:27;;;;;;;29.00;16.65;;;;;;;6.69;53.71;102335.69;4940647;28;20431;-85
2021/03/07 02:42:58;;;;;;;33.42;16.23;;;;;;;7.42;54.20;102492.22;4950158;28;20086;-86
2021/03/07 02:45:27;;;;;;;29.92;16.95;;;;;;;7.74;54.01;102528.78;4956125;28;20023;-86
2021/03/07 02:47:55;;;;;;;32.55;17.40;;;;;;;6.94;53.30;102390.53;4944962;28;20756;-85
2021/03/07 02:50:30;;;;;;;33.90;18.90;;;;;;;7.03;52.72;102341.75;4956280;28;20027;-85
2021/03/07 02:53:07;;;;;;;39.63;17.60;;;;;;;7.96;52.87;102461.88;4951497;28;20031;-85
2021/03/07 02:55:36;;;;;;;31.05;15.15;;;;;;;7.37;52.14;102381.72;4956811;28;20408;-86
2021/03/07 02:58:10;;;;;;;32.10;16.92;;;;;;;8.02;52.60;102428.84;4953098;28;20117;-85
2021/03/07 03:00:37;;;;;;;29.92;17.00;;;;;;;8.48;52.28;102498.63;4958503;28;20039;-85
2021/03/07 03:03:11;;;;;;;32.40;17.15;;;;;;;6.49;52.20;102230.75;4950244;28;20034;-86
2021/03/07 03:05:39;;;;;;;25.67;16.15;;;;;;;7.18;52.25;102314.25;4957952;28;20392;-86
2021/03/07 03:08:17;;;;;;;;;;;;;;;;;;;;;
2021/03/07 03:10:48;;;;;;;29.88;16.00;;;;;;;7.89;52.86;102414.88;4974473;28;20025;-84
2021/03/07 03:13:19;;;;;;;28.90;16.67;;;;;;;7.39;52.94;102404.41;4957733;28;20078;-85
2021/03/07 03:15:47;;;;;;;27.08;15.30;;;;;;;7.47;53.20;102415.34;4952651;28;20739;-86
2021/03/07 03:18:17;;;;;;;34.40;17.20;;;;;;;7.39;53.65;102355.66;4953634;28;21343;-85
2021/03/07 03:20:44;;;;;;;28.38;15.75;;;;;;;8.19;53.04;102472.78;4953501;28;20022;-84
2021/03/07 03:23:13;;;;;;;25.15;15.13;;;;;;;7.77;53.64;102466.88;4960344;28;20039;-85
2021/03/07 03:25:40;;;;;;;29.17;16.05;;;;;;;8.05;54.34;102463.47;4971352;28;20035;-86
2021/03/07 03:28:08;;;;;;;31.95;17.30;;;;;;;7.59;53.43;102407.47;4950367;28;20118;-84
2021/03/07 03:30:36;;;;;;;29.52;16.65;;;;;;;8.00;53.81;102491.63;4968632;28;20082;-88
2021/03/07 03:33:04;;;;;;;35.10;18.30;;;;;;;7.05;54.64;102358.94;4953036;28;20027;-86
2021/03/07 03:35:31;;;;;;;31.42;17.67;;;;;;;7.53;54.76;102444.03;4957471;28;20114;-89
2021/03/07 03:37:58;;;;;;;37.83;17.50;;;;;;;7.17;55.70;102386.88;4955835;28;20472;-88
2021/03/07 03:40:28;;;;;;;29.83;16.83;;;;;;;7.10;55.88;102404.16;4951528;28;20050;-90
2021/03/07 03:43:01;;;;;;;33.60;19.83;;;;;;;7.66;55.34;102459.94;4956748;28;20061;-85
2021/03/07 03:45:37;;;;;;;29.25;16.45;;;;;;;8.32;54.22;102477.66;4970034;28;20035;-89
2021/03/07 03:48:09;;;;;;;27.00;17.35;;;;;;;7.36;54.23;102300.06;4951880;28;20130;-85
2021/03/07 03:50:41;;;;;;;29.17;17.67;;;;;;;7.97;53.91;102358.75;4949802;28;20027;-87
2021/03/07 03:53:14;;;;;;;37.08;17.52;;;;;;;8.10;52.96;102352.56;4972134;28;20022;-85
2021/03/07 03:55:45;;;;;;;28.10;18.08;;;;;;;8.56;52.34;102385.34;4947544;28;20027;-86
2021/03/07 03:58:13;;;;;;;36.85;20.38;;;;;;;8.18;53.07;102345.03;4948553;28;20042;-86
2021/03/07 04:00:42;;;;;;;31.40;18.83;;;;;;;7.92;53.39;102306.94;4948343;28;20384;-87
2021/03/07 04:03:14;;;;;;;34.05;19.23;;;;;;;8.79;53.50;102403.63;4954960;28;20402;-84
2021/03/07 04:05:52;;;;;;;36.42;19.52;;;;;;;7.86;54.27;102280.13;4951385;28;20085;-85
2021/03/07 04:08:20;;;;;;;32.38;19.25;;;;;;;8.57;55.34;102436.75;4955650;28;20164;-88
2021/03/07 04:10:50;;;;;;;42.15;19.10;;;;;;;8.46;55.20;102398.59;4951461;28;20038;-84
2021/03/07 04:13:21;;;;;;;25.63;14.85;;;;;;;8.54;55.88;102426.13;4949923;28;20051;-85
2021/03/07 04:15:48;;;;;;;36.35;19.27;;;;;;;7.73;55.32;102240.31;4945653;28;20067;-84
2021/03/07 04:18:17;;;;;;;43.92;19.15;;;;;;;8.83;55.25;102413.25;4946741;28;20123;-85
2021/03/07 04:20:46;;;;;;;24.25;15.30;;;;;;;8.47;54.51;102356.16;4950026;29;20492;-90
2021/03/07 04:23:13;;;;;;;37.60;18.98;;;;;;;7.46;55.34;102264.81;4947899;29;20484;-86
2021/03/07 04:25:40;;;;;;;25.48;17.25;;;;;;;7.77;55.90;102294.03;4947621;28;20496;-84
2021/03/07 04:28:08;;;;;;;32.53;20.15;;;;;;;8.00;56.85;102405.25;4952655;28;20019;-85
2021/03/07 04:30:38;;;;;;;40.17;19.20;;;;;;;7.29;57.93;102329.41;4942609;29;20031;-85
2021/03/07 04:33:06;;;;;;;35.53;19.60;;;;;;;6.51;57.26;102173.63;4967999;28;20086;-85
2021/03/07 04:35:34;;;;;;;41.20;20.67;;;;;;;7.16;57.17;102220.75;4941799;28;20512;-88
2021/03/07 04:38:05;;;;;;;34.50;17.17;;;;;;;7.55;55.94;102261.94;4950745;29;20066;-90
2021/03/07 04:40:35;;;;;;;37.80;20.27;;;;;;;8.20;56.13;102296.00;4948795;28;20023;-86
2021/03/07 04:43:04;;;;;;;39.13;20.40;;;;;;;7.61;56.17;102234.47;4944872;28;20035;-82
2021/03/07 04:45:31;;;;;;;34.85;18.35;;;;;;;7.93;56.49;102297.63;4941317;28;20291;-83
2021/03/07 04:47:58;;;;;;;37.35;19.70;;;;;;;7.97;57.93;102373.44;4945527;28;20424;-84
2021/03/07 04:50:25;;;;;;;32.13;19.50;;;;;;;7.11;57.51;102214.97;4948720;28;20499;-83
2021/03/07 04:52:56;;;;;;;40.10;20.92;;;;;;;6.49;57.91;102159.22;4942037;28;20062;-81
2021/03/07 04:55:23;;;;;;;35.25;20.25;;;;;;;7.04;58.60;102234.16;4948138;28;20035;-84
2021/03/07 04:57:50;;;;;;;42.30;19.27;;;;;;;7.15;58.34;102278.78;4945739;28;20066;-87
2021/03/07 05:00:18;;;;;;;38.25;20.65;;;;;;;6.28;58.62;102108.53;4946613;28;20070;-84
2021/03/07 05:02:45;;;;;;;38.92;20.55;;;;;;;7.89;57.58;102321.09;4953092;29;20035;-87
2021/03/07 05:05:16;;;;;;;34.20;20.27;;;;;;;7.88;57.06;102281.66;4951429;28;20378;-88
2021/03/07 05:07:43;;;;;;;32.22;21.67;;;;;;;8.51;56.25;102331.75;4954598;28;20031;-86
2021/03/07 05:10:10;;;;;;;32.97;18.00;;;;;;;8.36;57.26;102327.16;4948329;28;20083;-86
2021/03/07 05:12:38;;;;;;;32.50;19.15;;;;;;;8.08;57.70;102328.78;4949367;28;20082;-84
2021/03/07 05:15:07;;;;;;;34.58;19.77;;;;;;;6.95;58.72;102200.34;4943170;29;20031;-86
2021/03/07 05:17:34;;;;;;;36.50;20.73;;;;;;;6.82;58.77;102194.63;4941964;28;20091;-84
2021/03/07 05:20:05;;;;;;;42.63;21.00;;;;;;;6.96;59.24;102235.09;4951038;28;20844;-85
2021/03/07 05:22:33;;;;;;;43.80;22.40;;;;;;;6.14;59.79;102146.81;4946075;29;20031;-85
2021/03/07 05:25:00;;;;;;;39.08;21.67;;;;;;;5.46;59.97;102045.84;4952342;28;20028;-88
2021/03/07 05:27:27;;;;;;;29.58;19.40;;;;;;;5.73;59.60;102073.81;4952693;28;20031;-87
2021/03/07 05:29:54;;;;;;;39.03;22.00;;;;;;;6.81;59.54;102243.34;4947283;28;20031;-87
2021/03/07 05:32:21;;;;;;;38.13;20.52;;;;;;;7.49;59.66;102314.03;4955196;28;20022;-87
2021/03/07 05:34:48;;;;;;;45.85;22.63;;;;;;;6.93;60.76;102260.25;4957237;28;20050;-85
2021/03/07 05:37:15;;;;;;;41.03;22.75;;;;;;;6.16;60.59;102128.25;4960498;28;20102;-86
2021/03/07 05:39:42;;;;;;;39.60;24.08;;;;;;;6.30;60.60;102158.69;4950784;28;20070;-85
2021/03/07 05:42:09;;;;;;;47.88;25.08;;;;;;;7.25;60.75;102306.91;4948534;29;20036;-91
2021/03/07 05:44:37;;;;;;;36.47;21.13;;;;;;;7.05;60.87;102303.84;4947408;28;20035;-87
2021/03/07 05:47:04;;;;;;;44.53;23.27;;;;;;;6.97;59.83;102256.06;4948904;28;20029;-83
2021/03/07 05:49:31;;;;;;;44.28;22.80;;;;;;;6.35;60.33;102159.00;4950026;29;20039;-84
2021/03/07 05:51:59;;;;;;;40.15;21.70;;;;;;;7.51;59.61;102305.56;4949095;29;20042;-87
2021/03/07 05:54:27;;;;;;;37.30;22.52;;;;;;;7.02;59.99;102236.22;4946961;28;20503;-87
2021/03/07 05:56:55;;;;;;;47.42;23.65;;;;;;;5.76;60.32;102056.06;4946480;28;20035;-88
2021/03/07 05:59:23;;;;;;;37.03;21.48;;;;;;;6.83;59.75;102190.84;4954275;28;20035;-94
2021/03/07 06:01:50;;;;;;;45.90;23.67;;;;;;;6.33;59.57;102083.22;4947074;29;20027;-85
2021/03/07 06:04:17;;;;;;;37.50;21.20;;;;;;;7.42;59.05;102246.09;4948356;28;20799;-86
2021/03/07 06:06:44;;;;;;;39.17;20.38;;;;;;;8.00;58.58;102297.69;4950966;29;20034;-82
2021/03/07 06:09:21;;;;;;;38.95;21.25;;;;;;;5.77;59.60;102034.94;4945589;28;20031;-85
2021/03/07 06:11:52;;;;;;;45.20;22.85;;;;;;;7.32;60.13;102296.00;4948443;28;20444;-87
2021/03/07 06:14:31;;;;;;;38.10;21.63;;;;;;;6.28;59.46;102103.03;4969203;28;20046;-87
2021/03/07 06:17:16;;;;;;;39.70;23.20;;;;;;;7.69;58.93;102280.38;4947414;28;20023;-88
2021/03/07 06:19:55;;;;;;;37.25;22.83;;;;;;;8.05;58.32;102293.31;4959704;28;20126;-86
2021/03/07 06:22:23;;;;;;;42.30;19.70;;;;;;;6.96;58.46;102110.34;4959496;28;20030;-85
2021/03/07 06:24:50;;;;;;;38.25;22.00;;;;;;;7.41;58.63;102190.13;4968252;28;20033;-88
2021/03/07 06:27:18;;;;;;;41.17;22.45;;;;;;;5.96;60.00;102039.06;4958181;28;20041;-86
2021/03/07 06:29:58;;;;;;;39.78;22.92;;;;;;;6.96;60.18;102177.25;4957834;28;20026;-86
2021/03/07 06:32:28;;;;;;;46.25;24.30;;;;;;;7.68;60.85;102292.44;4955414;28;20111;-87
2021/03/07 06:34:56;;;;;;;44.67;22.85;;;;;;;7.30;61.97;102298.09;4964353;28;20039;-87
2021/03/07 06:37:23;;;;;;;48.47;24.25;;;;;;;7.46;61.56;102284.13;4972121;28;20022;-91
2021/03/07 06:39:50;;;;;;;44.50;25.15;;;;;;;7.28;61.00;102228.53;4973006;28;20022;-87
2021/03/07 06:42:18;;;;;;;46.28;25.17;;;;;;;7.08;61.29;102201.59;4962302;28;20484;-88
2021/03/07 06:45:14;;;;;;;48.65;23.90;;;;;;;7.67;60.93;102288.00;4956764;28;20027;-90
2021/03/07 06:47:55;;;;;;;45.78;25.95;;;;;;;7.04;61.37;102223.16;4929469;28;20062;-89
2021/03/07 06:50:22;;;;;;;50.47;26.38;;;;;;;7.35;61.45;102290.09;4973396;28;20035;-87
2021/03/07 06:52:51;;;;;;;41.75;22.40;;;;;;;6.93;61.07;102176.78;4956906;28;20035;-88
2021/03/07 06:55:19;;;;;;;44.42;22.20;;;;;;;7.30;60.29;102208.00;4973175;28;20100;-86
2021/03/07 06:57:46;;;;;;;47.83;24.65;;;;;;;7.64;60.27;102291.97;4957221;28;20121;-87
2021/03/07 07:00:14;;;;;;;48.00;24.02;;;;;;;7.34;61.31;102299.41;4956043;28;20492;-88
2021/03/07 07:03:01;;;;;;;43.45;21.95;;;;;;;7.41;61.29;102288.50;4953362;28;20484;-87
2021/03/07 07:05:45;;;;;;;44.80;22.25;;;;;;;7.43;61.03;102275.38;4957225;28;20407;-87
2021/03/07 07:08:17;;;;;;;39.80;20.77;;;;;;;7.16;60.15;102220.75;4955376;28;20034;-89
2021/03/07 07:10:53;;;;;;;41.38;21.88;;;;;;;7.38;61.63;102273.19;4976569;28;20035;-88
2021/03/07 07:13:24;;;;;;;50.30;22.52;;;;;;;7.30;62.50;102276.03;4958603;28;20050;-88
2021/03/07 07:16:04;;;;;;;35.75;20.35;;;;;;;7.31;62.88;102269.50;4960868;28;20027;-88
2021/03/07 07:18:33;;;;;;;42.10;23.07;;;;;;;7.08;62.93;102240.16;4960455;28;20026;-87
2021/03/07 07:21:03;;;;;;;44.08;22.75;;;;;;;7.43;62.81;102287.22;4958711;28;20107;-87
2021/03/07 07:23:31;;;;;;;36.53;22.10;;;;;;;5.68;62.45;101992.94;4956187;28;20035;-87
2021/03/07 07:25:58;;;;;;;49.45;25.88;;;;;;;6.86;62.30;102187.72;4958757;28;20038;-87
2021/03/07 07:28:26;;;;;;;40.05;21.83;;;;;;;7.41;61.96;102278.31;4958173;28;20015;-87
2021/03/07 07:30:56;;;;;;;57.30;27.10;;;;;;;7.12;62.62;102274.50;4958944;28;20035;-88
2021/03/07 07:33:46;;;;;;;47.53;25.63;;;;;;;6.51;62.71;102149.75;4957370;28;20019;-87
2021/03/07 07:36:23;;;;;;;47.08;25.55;;;;;;;6.91;63.52;102244.97;4959454;28;20118;-88
2021/03/07 07:38:54;;;;;;;42.50;22.23;;;;;;;6.77;63.15;102166.84;4965881;28;20403;-88
2021/03/07 07:41:31;;;;;;;;;;;;;;;6.91;63.92;102267.00;4957164;28;20515;-88
2021/03/07 07:43:58;;;;;;;44.00;25.50;;;;;;;6.82;63.85;102224.91;4956656;28;19964;-87
2021/03/07 07:46:26;;;;;;;41.78;25.10;;;;;;;6.80;64.15;102244.41;4969497;28;20176;-87
2021/03/07 07:48:53;;;;;;;42.65;24.30;;;;;;;7.06;64.30;102283.53;4968621;28;20469;-87
2021/03/07 07:51:34;;;;;;;42.25;25.60;;;;;;;6.33;63.44;102138.22;4971651;28;20033;-89
2021/03/07 07:54:03;;;;;;;50.67;25.40;;;;;;;5.78;63.86;102076.00;4971194;28;20135;-89
2021/03/07 07:56:38;;;;;;;50.88;27.33;;;;;;;6.50;64.84;102214.06;4960067;28;20160;-87
2021/03/07 07:59:07;;;;;;;50.13;27.92;;;;;;;6.39;64.62;102212.63;4957345;28;20036;-88
2021/03/07 08:01:57;;;;;;;45.60;25.25;;;;;;;6.60;64.90;102238.56;4960608;28;20027;-89
2021/03/07 08:04:30;;;;;;;46.33;25.65;;;;;;;7.11;63.97;102270.03;4961780;28;20054;-88
2021/03/07 08:07:02;;;;;;;46.15;25.33;;;;;;;6.22;63.70;102150.53;4962769;28;20042;-86
2021/03/07 08:09:36;;;;;;;49.50;25.40;;;;;;;6.83;64.08;102268.78;4960728;28;20027;-85
2021/03/07 08:12:43;;;;;;;41.28;23.02;;;;;;;6.62;65.08;102276.91;4958115;28;20030;-88
2021/03/07 08:15:25;;;;;;;47.78;24.48;;;;;;;6.45;64.45;102277.06;4958537;28;20185;-86
2021/03/07 08:18:03;;;;;;;41.58;22.98;;;;;;;6.19;64.95;102238.94;4951945;28;20393;-85
2021/03/07 08:20:42;;;;;;;46.03;22.00;;;;;;;6.39;63.90;102269.53;4952507;28;20054;-87
2021/03/07 08:23:17;;;;;;;37.70;23.67;;;;;;;6.27;65.04;102266.38;4956278;28;20126;-89
2021/03/07 08:25:47;;;;;;;36.05;21.95;;;;;;;5.81;65.35;102206.69;4967025;28;20027;-93
2021/03/07 08:28:30;;;;;;;40.08;22.15;;;;;;;6.14;64.92;102277.97;4958570;28;20031;-87
2021/03/07 08:30:59;;;;;;;36.97;22.63;;;;;;;5.99;65.53;102275.13;4951720;28;20037;-89
2021/03/07 08:33:31;;;;;;;43.92;23.50;;;;;;;5.74;65.93;102223.06;4976929;28;20073;-86
2021/03/07 08:36:13;;;;;;;34.65;21.90;;;;;;;5.84;66.56;102266.81;4963912;28;20096;-85
2021/03/07 08:38:55;;;;;;;39.15;22.85;;;;;;;5.83;66.77;102273.34;4997041;28;20033;-90
2021/03/07 08:41:37;;;;;;;37.25;23.50;;;;;;;5.95;66.43;102279.28;4995204;28;20031;-88
2021/03/07 08:44:11;;;;;;;39.15;23.52;;;;;;;5.58;66.69;102224.84;4985754;28;20037;-91
2021/03/07 08:46:46;;;;;;;35.95;21.60;;;;;;;5.90;66.94;102277.06;4969916;28;20065;-84
2021/03/07 08:49:17;;;;;;;46.13;24.23;;;;;;;5.37;67.64;102221.88;4957203;28;20035;-86
2021/03/07 08:51:46;;;;;;;39.92;22.45;;;;;;;5.65;68.17;102298.34;4976177;28;20035;-85
2021/03/07 08:54:21;;;;;;;42.33;25.48;;;;;;;5.58;67.45;102244.09;4958559;28;20093;-88
2021/03/07 08:56:51;;;;;;;42.53;22.95;;;;;;;5.92;67.25;102287.88;4950925;28;20035;-87
2021/03/07 08:59:23;;;;;;;42.33;23.05;;;;;;;5.88;67.45;102282.75;4957296;28;20093;-86
2021/03/07 09:01:51;;;;;;;53.80;22.45;;;;;;;6.02;67.09;102288.53;4958370;28;20027;-87
2021/03/07 09:04:18;;;;;;;42.95;25.10;;;;;;;4.93;67.71;102131.63;4962862;28;20027;-88
2021/03/07 09:06:47;;;;;;;41.05;24.15;;;;;;;5.29;67.28;102195.31;4979434;28;20491;-87
2021/03/07 09:09:22;;;;;;;38.50;23.15;;;;;;;5.99;67.03;102281.47;4962931;28;20042;-88
2021/03/07 09:11:49;;;;;;;40.03;21.45;;;;;;;5.84;68.14;102284.13;4956116;28;20472;-88
2021/03/07 09:14:27;;;;;;;45.42;23.90;;;;;;;5.79;68.45;102305.81;4957601;28;20043;-86
2021/03/07 09:16:54;;;;;;;43.28;22.80;;;;;;;4.68;68.84;102158.31;4950700;29;20122;-89
2021/03/07 09:19:24;;;;;;;43.20;23.27;;;;;;;5.40;68.43;102270.97;4951747;28;20015;-88
2021/03/07 09:22:28;;;;;;;39.83;25.80;;;;;;;5.50;68.80;102304.56;4956799;28;20023;-86
2021/03/07 09:25:15;;;;;;;43.70;23.88;;;;;;;5.31;68.64;102271.00;4890666;29;20071;-88
2021/03/07 09:27:43;;;;;;;48.45;24.75;;;;;;;4.44;67.90;102121.69;4942174;28;20533;-84
2021/03/07 09:30:16;;;;;;;42.67;23.42;;;;;;;5.48;68.60;102303.91;4943171;28;20023;-84
2021/03/07 09:32:48;;;;;;;44.55;23.52;;;;;;;4.66;68.00;102152.16;4946304;28;20023;-85
2021/03/07 09:35:25;;;;;;;37.72;25.42;;;;;;;5.76;68.12;102306.16;4950103;28;20028;-84
2021/03/07 09:38:08;;;;;;;47.35;24.75;;;;;;;5.73;67.79;102277.19;4960369;28;20031;-84
2021/03/07 09:40:37;;;;;;;43.97;24.13;;;;;;;5.94;66.79;102299.56;4949921;28;20095;-82
2021/03/07 09:43:10;;;;;;;41.17;22.42;;;;;;;5.06;67.19;102218.06;4944858;28;20031;-85
2021/03/07 09:45:51;;;;;;;46.67;25.00;;;;;;;5.52;67.10;102274.19;4945253;29;20039;-84
2021/03/07 09:48:28;;;;;;;44.15;23.35;;;;;;;5.64;67.25;102274.66;4948909;28;20047;-87
2021/03/07 09:50:56;;;;;;;41.90;24.33;;;;;;;5.05;66.93;102197.16;4955705;28;20476;-88
2021/03/07 09:53:24;;;;;;;41.85;22.77;;;;;;;4.85;65.43;102126.19;4952092;28;20053;-86
2021/03/07 09:55:51;;;;;;;48.55;24.02;;;;;;;6.04;65.16;102311.22;4950572;29;20500;-87
2021/03/07 09:58:18;;;;;;;41.08;24.25;;;;;;;6.02;65.24;102319.63;4955876;28;20122;-87
2021/03/07 10:00:52;;;;;;;41.30;24.42;;;;;;;5.37;64.36;102189.78;4970425;28;20031;-84
2021/03/07 10:03:26;;;;;;;42.15;25.30;;;;;;;5.70;65.96;102265.69;4958648;28;20035;-86
2021/03/07 10:06:11;;;;;;;39.05;23.38;;;;;;;5.39;66.15;102220.66;4947488;28;20077;-86
2021/03/07 10:08:41;;;;;;;46.17;26.45;;;;;;;5.39;66.72;102252.75;4954781;28;20032;-88
2021/03/07 10:11:18;;;;;;;45.38;26.35;;;;;;;5.29;67.08;102229.13;4957396;28;20042;-86
2021/03/07 10:13:47;;;;;;;42.00;24.92;;;;;;;5.74;66.61;102316.50;4953623;28;20082;-87
2021/03/07 10:16:27;;;;;;;44.00;24.15;;;;;;;5.02;66.25;102209.34;4949485;28;20027;-87
2021/03/07 10:19:11;;;;;;;;;;;;;;;5.82;66.21;102312.88;4945188;28;20041;-87
2021/03/07 10:21:39;;;;;;;49.78;24.70;;;;;;;5.63;66.49;102328.72;4953928;29;19918;-89
2021/03/07 10:24:13;;;;;;;41.90;23.45;;;;;;;5.54;66.32;102327.94;4953824;28;20705;-88
2021/03/07 10:26:42;;;;;;;44.28;23.83;;;;;;;4.69;65.54;102162.75;4948677;28;20031;-87
2021/03/07 10:29:25;;;;;;;52.08;25.25;;;;;;;5.68;65.54;102334.56;4955176;28;20441;-87
2021/03/07 10:32:05;;;;;;;42.58;23.52;;;;;;;5.65;65.79;102332.16;4953418;28;20448;-89
2021/03/07 10:34:41;;;;;;;50.30;25.47;;;;;;;5.28;67.16;102273.25;4952122;28;20028;-89
2021/03/07 10:37:12;;;;;;;40.00;25.05;;;;;;;4.45;67.67;102170.03;4957074;28;20042;-87
2021/03/07 10:39:50;;;;;;;43.67;23.42;;;;;;;3.99;68.23;102102.06;4951113;28;20031;-86
2021/03/07 10:42:17;;;;;;;46.72;26.05;;;;;;;3.99;69.87;102123.13;4952145;29;20039;-85
2021/03/07 10:44:44;;;;;;;43.90;25.90;;;;;;;5.34;71.44;102353.03;4948006;28;20051;-85
2021/03/07 10:47:20;;;;;;;52.53;25.65;;;;;;;5.24;72.48;102348.78;4952545;28;20139;-86
2021/03/07 10:49:50;;;;;;;56.03;27.23;;;;;;;4.85;73.33;102310.06;4950474;28;20036;-87
2021/03/07 10:52:17;;;;;;;53.63;29.65;;;;;;;4.70;74.08;102309.88;4954904;28;20067;-87
2021/03/07 10:54:45;;;;;;;54.10;26.90;;;;;;;4.70;73.64;102273.38;4950471;28;20031;-88
2021/03/07 10:57:13;;;;;;;56.08;29.42;;;;;;;3.91;74.03;102193.34;4949029;29;20033;-87
2021/03/07 10:59:40;;;;;;;61.75;30.00;;;;;;;3.19;74.15;102063.34;4954777;28;20373;-88
2021/03/07 11:02:10;;;;;;;50.00;27.85;;;;;;;4.75;74.84;102343.16;4951193;28;20027;-87
2021/03/07 11:04:37;;;;;;;57.03;28.48;;;;;;;4.41;73.38;102239.09;4946358;28;20027;-88
2021/03/07 11:07:04;;;;;;;46.33;27.40;;;;;;;3.61;73.06;102140.09;4950001;28;20023;-86
2021/03/07 11:09:31;;;;;;;50.85;26.80;;;;;;;4.89;72.96;102359.97;4954988;28;20051;-88
2021/03/07 11:11:58;;;;;;;51.58;27.30;;;;;;;4.36;71.83;102236.88;4953705;28;20094;-87
2021/03/07 11:14:26;;;;;;;48.67;25.30;;;;;;;4.49;71.10;102281.13;4981772;28;20659;-85
2021/03/07 11:16:52;;;;;;;48.97;26.45;;;;;;;3.52;71.93;102155.63;4960488;28;20459;-87
2021/03/07 11:19:19;;;;;;;54.42;26.60;;;;;;;4.81;71.97;102366.31;4961018;28;20077;-89
2021/03/07 11:21:47;;;;;;;50.75;28.75;;;;;;;4.15;72.71;102301.28;4961672;28;20797;-87
2021/03/07 11:24:14;;;;;;;47.35;24.95;;;;;;;4.82;72.69;102365.31;4956467;28;20061;-90
2021/03/07 11:26:40;;;;;;;52.42;25.73;;;;;;;4.29;72.11;102313.50;4963091;28;20031;-88
2021/03/07 11:29:07;;;;;;;48.40;25.55;;;;;;;4.38;71.85;102295.16;4959934;28;20121;-87
2021/03/07 11:31:34;;;;;;;48.92;26.88;;;;;;;4.78;71.63;102389.50;4970753;28;20090;-86
2021/03/07 11:34:02;;;;;;;48.03;25.30;;;;;;;4.50;71.21;102309.38;4953081;28;20116;-86
2021/03/07 11:36:29;;;;;;;38.53;24.55;;;;;;;4.90;71.91;102369.91;4950354;28;20598;-86